Kingsland, AR

4:24 PM CST on January 22, 2017 (GMT -0600)
Staves | | Change Station
Active Advisory: Lake Wind Advisory

Elev 272 ft 34.06 °N, 92.28 °W | Updated 8 seconds ago

Overcast
Overcast
54.9 °F
Feels Like 54.9 °F
N
0.0
Wind Variable Wind from South

Today
High -- | Low -- °F
--% Chance of Precip.
Yesterday
High -- | Low -- °F
Precip. -- in
Pressure 29.39 in
Visibility 10.0 miles
Clouds Few 1500 ft
Scattered Clouds 4100 ft
Overcast 6000 ft
Dew Point 54 °F
Humidity 98%
Rainfall 0.30 in
Snow Depth Not available.
7:11 AM 5:30 PM
Waning Crescent, 23% visible
METAR KPBF 222153Z AUTO 30010KT 10SM FEW015 SCT041 OVC060 12/11 A2939 RMK AO2 RAE52 SLP952 P0001 T01220111
Pressure 29.39 in
Visibility 10.0 miles
Clouds Few 1500 ft
Scattered Clouds 4100 ft
Overcast 6000 ft
Dew Point 54 °F
Humidity 98%
Rainfall 0.30 in
Snow Depth Not available.
7:11 AM 5:30 PM
Waning Crescent, 23% visible
METAR KPBF 222153Z AUTO 30010KT 10SM FEW015 SCT041 OVC060 12/11 A2939 RMK AO2 RAE52 SLP952 P0001 T01220111

Get Your Daily Forecast Email!

Thanks for signing up!

Be on the lookout for a verification email in your inbox.

You'll start receiving the daily forecast at 8 AM.

×

10-Day Weather Forecast

Almanac

Astronomy

Jan. 22, 2017 Rise Set
Actual Time
Civil Twilight
Nautical Twilight
Astronomical Twilight
Moon
Length of Visible Light
Length of Day
Tomorrow will be .
, % of the Moon is Illuminated

Today's Extremes

State Highs State Lows

Community

WunderPhotos

Upload Photos

1,962,540 photos uploaded!

WunderBlog® & News

Nearby

Air Quality

  Air Quality AQ Index Pollutant
Not available.

Snow Depth

Station Depth Elevation

Earthquake Activity

City Distance Mag. Time & Date
Minimum magnitude displayed is 2.5.

Coastal Water Temperatures

Place Temperature

Stations

Nearby Weather Stations

Station Location Temp. Windchill Dew Point Humidity Wind Precip. Elev Updated Type
                   

Watches & Warnings

Lake Wind Advisory
Issued: 2:10 PM CST Jan. 22, 2017 – National Weather Service

... Lake Wind Advisory remains in effect until 3 am CST Monday...

* event... gusty winds are expected.

* Areas affected... a large part of Arkansas.

* Timing... the strongest winds will be during the evening hours.

* Winds... winds of 15 to 25 mph are likely... with gusts to 35
mph.

* Impacts... winds will cause rough conditions on area bodies of
water.

Precautionary/preparedness actions...

A lake Wind Advisory indicates that winds will cause rough chop
on area lakes. Small boats will be especially prone to capsizing.



56